Time;durP1;ratioP1;P1;durP2;ratioP2;P2;SDS_P1;SDS_P2;PMS_P1;PMS_P2;Temp;Humidity;BMP_temperature;BMP_pressure;BME280_temperature;BME280_humidity;BME280_pressure;Samples;Min_cycle;Max_cycle;Signal;HPM_P1;HPM_P2
2022/01/30 00:00:56;;;;;;;37.90;5.97;;;;;;;4.67;100.00;100524.34;7397371;19;20380;-45
2022/01/30 00:03:29;;;;;;;20.53;4.30;;;;;;;4.68;100.00;100528.66;7395804;19;20441;-46
2022/01/30 00:05:58;;;;;;;15.57;2.60;;;;;;;4.76;100.00;100558.94;7396407;19;20408;-49
2022/01/30 00:08:29;;;;;;;25.70;4.70;;;;;;;4.76;100.00;100585.38;7395517;19;20406;-47
2022/01/30 00:11:06;;;;;;;24.40;5.23;;;;;;;4.79;100.00;100572.81;7397858;19;20858;-49
2022/01/30 00:13:36;;;;;;;43.40;8.43;;;;;;;4.83;100.00;100571.31;7395353;19;20415;-49
2022/01/30 00:16:10;;;;;;;34.73;6.50;;;;;;;4.83;100.00;100566.22;7396349;19;20407;-47
2022/01/30 00:18:50;;;;;;;40.93;7.07;;;;;;;4.81;100.00;100585.66;7395940;19;20423;-46
2022/01/30 00:21:31;;;;;;;35.53;6.60;;;;;;;4.77;100.00;100574.38;7397707;19;20400;-49
2022/01/30 00:24:05;;;;;;;36.77;5.30;;;;;;;4.75;100.00;100575.94;7395883;19;20428;-49
2022/01/30 00:26:37;;;;;;;41.50;6.07;;;;;;;4.74;100.00;100592.06;7395770;19;20416;-47
2022/01/30 00:29:07;;;;;;;42.53;5.73;;;;;;;4.67;100.00;100575.47;7396724;19;20423;-49
2022/01/30 00:31:38;;;;;;;22.90;4.30;;;;;;;4.42;100.00;100588.38;7399499;19;20858;-46
2022/01/30 00:34:30;;;;;;;20.80;2.93;;;;;;;4.22;100.00;100565.00;7397423;19;20909;-48
2022/01/30 00:37:01;;;;;;;19.77;3.77;;;;;;;4.08;100.00;100545.31;7370111;19;20390;-46
2022/01/30 00:39:31;;;;;;;21.53;3.77;;;;;;;3.95;100.00;100552.19;7396378;19;20962;-50
2022/01/30 00:42:00;;;;;;;21.17;3.20;;;;;;;3.85;100.00;100543.03;7379309;19;20428;-49
2022/01/30 00:44:30;;;;;;;33.80;4.93;;;;;;;3.74;100.00;100539.78;7408392;19;20404;-49
2022/01/30 00:47:02;;;;;;;14.63;2.80;;;;;;;3.74;100.00;100547.44;7402421;19;20411;-49
2022/01/30 00:49:34;;;;;;;11.30;4.00;;;;;;;3.89;100.00;100574.75;7406668;19;20400;-45
2022/01/30 00:52:03;;;;;;;15.83;3.63;;;;;;;3.92;100.00;100567.31;7390593;19;20887;-48
2022/01/30 00:54:33;;;;;;;28.70;3.67;;;;;;;4.03;100.00;100556.13;7406929;19;20399;-49
2022/01/30 00:57:02;;;;;;;35.13;5.60;;;;;;;4.09;100.00;100593.06;7402574;19;20694;-47
2022/01/30 00:59:32;;;;;;;20.17;3.83;;;;;;;4.07;100.00;100590.41;7407363;19;20408;-46
2022/01/30 01:02:01;;;;;;;29.43;4.80;;;;;;;4.09;100.00;100570.09;7403832;19;20427;-49
2022/01/30 01:04:33;;;;;;;34.07;5.83;;;;;;;4.15;100.00;100563.69;7407732;19;20403;-51
2022/01/30 01:07:03;;;;;;;61.07;5.90;;;;;;;4.14;100.00;100577.25;7403205;19;20908;-47
2022/01/30 01:09:37;;;;;;;29.53;5.20;;;;;;;4.15;100.00;100578.16;7402724;19;20388;-51
2022/01/30 01:12:47;;;;;;;24.37;4.93;;;;;;;4.14;100.00;100546.63;7403325;19;20450;-47
2022/01/30 01:23:27;;;;;;;25.03;4.00;;;;;;;4.38;100.00;100602.63;7401107;19;20483;-46
2022/01/30 01:25:58;;;;;;;18.27;4.07;;;;;;;4.35;100.00;100593.88;7404231;19;20421;-49
2022/01/30 01:28:28;;;;;;;19.47;3.50;;;;;;;4.37;100.00;100612.72;7401085;19;20665;-46
2022/01/30 01:30:57;;;;;;;65.57;5.40;;;;;;;4.36;100.00;100629.72;7402772;19;20398;-49
2022/01/30 01:33:34;;;;;;;33.67;4.33;;;;;;;4.27;100.00;100635.16;7399179;19;20445;-47
2022/01/30 01:36:07;;;;;;;28.33;3.40;;;;;;;4.25;100.00;100631.59;7401529;19;20866;-50
2022/01/30 01:38:37;;;;;;;30.57;5.47;;;;;;;4.28;100.00;100605.34;7400631;19;20414;-47
2022/01/30 01:41:06;;;;;;;20.47;4.00;;;;;;;4.23;100.00;100591.41;7402850;19;20406;-46
2022/01/30 01:43:36;;;;;;;29.37;4.30;;;;;;;4.26;100.00;100573.72;7401515;19;20452;-49
2022/01/30 01:46:13;;;;;;;23.33;4.17;;;;;;;4.31;100.00;100600.47;7400736;19;20420;-51
2022/01/30 01:48:45;;;;;;;25.73;4.67;;;;;;;4.37;100.00;100605.97;7405081;19;20430;-46
2022/01/30 01:51:20;;;;;;;30.77;4.20;;;;;;;4.39;100.00;100614.59;7402656;19;20402;-49
2022/01/30 01:53:53;;;;;;;16.53;2.87;;;;;;;4.36;100.00;100639.94;7396908;19;20500;-50
2022/01/30 01:56:23;;;;;;;21.63;5.10;;;;;;;4.39;100.00;100594.16;7400975;19;20409;-47
2022/01/30 01:58:52;;;;;;;10.63;2.50;;;;;;;4.35;100.00;100593.88;7400271;19;20404;-49
2022/01/30 02:01:24;;;;;;;20.13;3.43;;;;;;;4.33;100.00;100609.09;7403081;19;20471;-47
2022/01/30 02:03:54;;;;;;;21.00;4.00;;;;;;;4.31;100.00;100631.97;7400279;19;20418;-47
2022/01/30 02:06:28;;;;;;;14.23;3.20;;;;;;;4.28;100.00;100625.78;7400362;19;20742;-45
2022/01/30 02:09:00;;;;;;;18.67;2.93;;;;;;;4.31;100.00;100606.44;7400088;19;20425;-47
2022/01/30 02:11:35;;;;;;;17.43;3.87;;;;;;;4.35;100.00;100576.88;7401935;19;20398;-51
2022/01/30 02:14:25;;;;;;;27.67;3.60;;;;;;;4.36;100.00;100616.94;7399233;19;20427;-46
2022/01/30 02:25:18;;;;;;;23.00;3.73;;;;;;;4.30;100.00;100675.31;7400948;19;20392;-47
2022/01/30 02:27:48;;;;;;;28.63;4.67;;;;;;;4.25;100.00;100630.72;7376903;19;20421;-46
2022/01/30 02:30:20;;;;;;;27.83;4.00;;;;;;;4.18;100.00;100666.06;7402934;19;20396;-46
2022/01/30 02:32:51;;;;;;;29.83;5.13;;;;;;;4.19;100.00;100626.06;7397476;19;20424;-45
2022/01/30 02:35:20;;;;;;;26.30;4.70;;;;;;;4.14;100.00;100628.34;7400079;19;20382;-47
2022/01/30 02:37:54;;;;;;;37.93;4.47;;;;;;;4.08;100.00;100607.50;7385228;19;20944;-46
2022/01/30 02:40:23;;;;;;;31.60;4.03;;;;;;;4.04;100.00;100620.84;7398592;19;20889;-45
2022/01/30 02:42:54;;;;;;;51.30;6.40;;;;;;;4.01;100.00;100623.22;7398679;19;20428;-47
2022/01/30 02:45:27;;;;;;;34.60;4.60;;;;;;;4.00;100.00;100614.66;7400077;19;20383;-47
2022/01/30 02:48:12;;;;;;;50.20;7.03;;;;;;;4.06;100.00;100598.88;7398648;19;20422;-47
2022/01/30 02:50:52;;;;;;;44.60;6.50;;;;;;;4.14;100.00;100592.56;7401004;19;20395;-46
2022/01/30 02:53:30;;;;;;;29.37;6.83;;;;;;;4.14;100.00;100607.00;7383690;19;20693;-48
2022/01/30 02:56:00;;;;;;;28.43;5.67;;;;;;;4.25;100.00;100620.50;7399068;19;20421;-47
2022/01/30 02:58:29;;;;;;;29.97;4.77;;;;;;;4.29;100.00;100609.69;7365802;19;20415;-48
2022/01/30 03:00:59;;;;;;;21.53;3.73;;;;;;;4.31;100.00;100605.56;7400452;19;20759;-49
2022/01/30 03:03:29;;;;;;;43.57;6.10;;;;;;;4.32;100.00;100633.75;7389609;19;20467;-47
2022/01/30 03:05:59;;;;;;;33.30;6.67;;;;;;;4.36;100.00;100639.06;7395772;19;20410;-49
2022/01/30 03:08:31;;;;;;;23.30;4.97;;;;;;;4.42;100.00;100649.69;7397229;19;20428;-46
2022/01/30 03:11:00;;;;;;;24.73;4.40;;;;;;;4.46;100.00;100637.19;7399055;19;20397;-48
2022/01/30 03:13:29;;;;;;;24.47;5.17;;;;;;;4.52;100.00;100648.63;7397146;19;20437;-50
2022/01/30 03:16:03;;;;;;;26.07;6.03;;;;;;;4.57;100.00;100630.22;7398162;19;20451;-46
2022/01/30 03:18:33;;;;;;;26.27;4.73;;;;;;;4.53;100.00;100653.84;7397576;19;20416;-47
2022/01/30 03:21:02;;;;;;;22.23;4.43;;;;;;;4.48;100.00;100649.19;7399741;19;20395;-46
2022/01/30 03:23:36;;;;;;;17.30;3.30;;;;;;;4.41;100.00;100659.00;7383257;19;20432;-46
2022/01/30 03:26:06;;;;;;;24.53;4.77;;;;;;;4.39;100.00;100681.03;7397993;19;20867;-48
2022/01/30 03:28:39;;;;;;;21.57;3.37;;;;;;;4.44;100.00;100668.56;7393133;19;20451;-47
2022/01/30 03:31:10;;;;;;;32.97;5.90;;;;;;;4.48;100.00;100678.19;7399558;19;20392;-47
2022/01/30 03:33:40;;;;;;;27.13;4.63;;;;;;;4.49;100.00;100668.84;7372461;19;20444;-51
2022/01/30 03:36:10;;;;;;;29.13;3.53;;;;;;;4.48;100.00;100665.41;7400318;19;20499;-47
2022/01/30 03:38:42;;;;;;;30.70;5.30;;;;;;;4.48;100.00;100708.84;7375724;19;20448;-47
2022/01/30 03:41:11;;;;;;;34.10;4.27;;;;;;;4.48;100.00;100687.50;7399633;19;20445;-49
2022/01/30 03:43:41;;;;;;;35.73;5.47;;;;;;;4.50;100.00;100701.31;7363294;19;20407;-45
2022/01/30 03:46:10;;;;;;;38.47;4.30;;;;;;;4.45;100.00;100696.75;7397253;19;20420;-47
2022/01/30 03:48:40;;;;;;;35.87;5.90;;;;;;;4.40;100.00;100667.47;7397684;19;20427;-48
2022/01/30 03:51:09;;;;;;;25.47;4.40;;;;;;;4.43;100.00;100672.78;7398963;19;20381;-46
2022/01/30 03:53:41;;;;;;;36.87;5.00;;;;;;;4.45;100.00;100688.19;7396461;19;20433;-48
2022/01/30 03:56:11;;;;;;;23.67;4.97;;;;;;;4.35;100.00;100721.59;7397390;19;20417;-48
2022/01/30 03:58:41;;;;;;;21.07;3.97;;;;;;;4.28;100.00;100712.63;7396736;19;20890;-46
2022/01/30 04:01:10;;;;;;;21.50;4.93;;;;;;;4.31;100.00;100702.63;7398756;19;20747;-48
2022/01/30 04:03:40;;;;;;;17.83;3.90;;;;;;;4.27;100.00;100709.22;7396775;19;20423;-46
2022/01/30 04:06:12;;;;;;;30.07;4.80;;;;;;;4.21;100.00;100701.16;7396888;19;20414;-47
2022/01/30 04:08:45;;;;;;;23.40;4.97;;;;;;;4.22;100.00;100717.34;7396858;19;20725;-48
2022/01/30 04:11:15;;;;;;;48.97;6.00;;;;;;;4.17;100.00;100717.91;7398440;19;20392;-45
2022/01/30 04:13:44;;;;;;;31.43;5.37;;;;;;;4.19;100.00;100743.56;7395571;19;20437;-49
2022/01/30 04:16:14;;;;;;;33.73;5.17;;;;;;;4.18;100.00;100717.16;7396970;19;20730;-47
2022/01/30 04:18:44;;;;;;;36.73;4.47;;;;;;;4.23;100.00;100731.88;7403955;19;20421;-45
2022/01/30 04:21:14;;;;;;;21.23;3.63;;;;;;;4.23;100.00;100685.91;7406613;19;20857;-47
2022/01/30 04:23:46;;;;;;;28.67;4.73;;;;;;;4.22;100.00;100715.69;7403753;19;20413;-47
2022/01/30 04:26:15;;;;;;;24.07;3.83;;;;;;;4.28;100.00;100718.66;7406712;19;20432;-47
2022/01/30 04:28:45;;;;;;;38.50;5.57;;;;;;;4.31;100.00;100753.72;7403356;19;20898;-47
2022/01/30 04:31:15;;;;;;;26.30;5.17;;;;;;;4.29;100.00;100763.84;7405447;19;20459;-47
2022/01/30 04:33:45;;;;;;;15.77;3.40;;;;;;;4.37;100.00;100777.13;7402608;19;20436;-45
2022/01/30 04:36:20;;;;;;;15.40;3.53;;;;;;;4.44;100.00;100771.66;7403138;19;20413;-47
2022/01/30 04:39:01;;;;;;;29.90;4.90;;;;;;;4.43;100.00;100757.09;7403415;19;20474;-46
2022/01/30 04:52:38;;;;;;;35.30;6.10;;;;;;;4.46;100.00;100777.72;7402862;19;20409;-48
2022/01/30 04:58:04;;;;;;;14.30;2.93;;;;;;;4.38;100.00;100783.13;7402628;19;20416;-47
2022/01/30 05:00:51;;;;;;;22.03;6.30;;;;;;;4.31;100.00;100820.16;7404298;19;20870;-47
2022/01/30 05:03:32;;;;;;;12.50;3.27;;;;;;;4.27;100.00;100829.28;7403117;19;20755;-47
2022/01/30 05:06:04;;;;;;;30.87;4.20;;;;;;;4.19;100.00;100848.28;7402445;19;20411;-47
2022/01/30 05:08:34;;;;;;;17.03;3.30;;;;;;;4.16;100.00;100819.97;7402538;19;20420;-50
2022/01/30 05:11:08;;;;;;;21.10;4.30;;;;;;;4.13;100.00;100795.13;7407433;19;20387;-48
2022/01/30 05:13:40;;;;;;;20.03;3.77;;;;;;;4.12;100.00;100793.34;7402011;19;20475;-46
2022/01/30 05:16:11;;;;;;;16.93;3.73;;;;;;;4.12;100.00;100795.00;7400276;19;20454;-46
2022/01/30 05:18:41;;;;;;;27.43;4.73;;;;;;;4.15;100.00;100811.41;7402932;19;20427;-46
2022/01/30 05:21:11;;;;;;;27.70;6.10;;;;;;;4.14;100.00;100775.56;7403773;19;20390;-48
2022/01/30 05:23:47;;;;;;;26.47;5.07;;;;;;;4.10;100.00;100779.56;7401866;19;20897;-47
2022/01/30 05:26:21;;;;;;;24.07;5.67;;;;;;;4.08;100.00;100790.47;7401391;19;20427;-48
2022/01/30 05:28:51;;;;;;;28.43;5.13;;;;;;;4.03;100.00;100741.63;7398808;19;20416;-47
2022/01/30 05:31:20;;;;;;;41.37;5.67;;;;;;;4.05;100.00;100770.69;7403440;19;20452;-48
2022/01/30 05:33:51;;;;;;;32.93;4.43;;;;;;;4.02;100.00;100775.63;7401377;19;20676;-46
2022/01/30 05:36:21;;;;;;;31.27;4.83;;;;;;;4.04;100.00;100799.56;7399694;19;20429;-45
2022/01/30 05:38:51;;;;;;;23.63;5.10;;;;;;;4.03;100.00;100765.50;7405589;19;20449;-45
2022/01/30 05:41:24;;;;;;;25.73;4.27;;;;;;;4.07;100.00;100810.03;7403148;19;20687;-47
2022/01/30 05:43:58;;;;;;;24.30;3.90;;;;;;;4.05;100.00;100811.56;7403298;19;20443;-49
2022/01/30 05:46:34;;;;;;;19.77;3.43;;;;;;;4.00;100.00;100764.44;7400725;19;20411;-46
2022/01/30 05:49:05;;;;;;;43.77;5.90;;;;;;;4.00;100.00;100782.28;7401932;19;20868;-47
2022/01/30 05:51:35;;;;;;;18.10;3.83;;;;;;;3.96;100.00;100805.84;7402935;19;20388;-46
2022/01/30 05:54:04;;;;;;;40.33;6.87;;;;;;;3.90;100.00;100817.38;7401533;19;20416;-47
2022/01/30 05:56:37;;;;;;;25.80;5.03;;;;;;;3.91;100.00;100778.31;7400794;19;20438;-46
2022/01/30 05:59:07;;;;;;;32.57;5.57;;;;;;;3.91;100.00;100797.88;7402251;19;20417;-45
2022/01/30 06:01:36;;;;;;;35.70;7.33;;;;;;;3.92;100.00;100794.53;7402630;19;20395;-46
2022/01/30 06:04:06;;;;;;;43.37;6.00;;;;;;;3.89;100.00;100809.59;7401651;19;20424;-48
2022/01/30 06:06:36;;;;;;;39.33;6.40;;;;;;;3.91;100.00;100793.63;7400113;19;20418;-45
2022/01/30 06:09:18;;;;;;;33.27;7.80;;;;;;;3.94;100.00;100792.94;7400949;19;20421;-47
2022/01/30 06:11:51;;;;;;;34.17;4.20;;;;;;;3.98;100.00;100788.94;7400569;19;20473;-50
2022/01/30 06:14:21;;;;;;;25.53;6.30;;;;;;;4.02;100.00;100809.72;7401044;19;20393;-47
2022/01/30 06:16:53;;;;;;;37.07;4.70;;;;;;;4.04;100.00;100786.81;7398143;19;20480;-46
2022/01/30 06:19:22;;;;;;;27.73;4.00;;;;;;;4.04;100.00;100831.13;7402209;19;20392;-46
2022/01/30 06:21:52;;;;;;;35.77;6.40;;;;;;;4.04;100.00;100841.34;7399970;19;20460;-46
2022/01/30 06:24:21;;;;;;;35.67;5.37;;;;;;;4.06;100.00;100823.56;7401282;19;20392;-45
2022/01/30 06:26:53;;;;;;;29.03;4.67;;;;;;;4.03;100.00;100871.84;7397406;19;20427;-47
2022/01/30 06:29:24;;;;;;;29.57;5.67;;;;;;;4.00;100.00;100859.75;7402106;19;20472;-46
2022/01/30 06:31:53;;;;;;;19.00;3.67;;;;;;;4.00;100.00;100864.88;7401510;19;20475;-48
2022/01/30 06:34:23;;;;;;;29.37;4.30;;;;;;;4.00;100.00;100871.66;7400952;19;20454;-46
2022/01/30 06:36:52;;;;;;;14.10;4.07;;;;;;;3.92;100.00;100838.81;7396994;19;20424;-47
2022/01/30 06:39:21;;;;;;;28.17;4.67;;;;;;;4.01;100.00;100893.84;7399846;19;20843;-47
2022/01/30 06:41:54;;;;;;;12.87;2.60;;;;;;;3.97;100.00;100845.91;7399733;19;20397;-49
2022/01/30 06:44:23;;;;;;;27.97;5.67;;;;;;;4.03;100.00;100899.94;7401296;19;20447;-51
2022/01/30 06:46:53;;;;;;;18.13;5.13;;;;;;;4.06;100.00;100895.06;7397381;19;20485;-47
2022/01/30 06:49:22;;;;;;;24.50;4.10;;;;;;;4.04;100.00;100923.03;7400638;19;20694;-47
2022/01/30 06:51:52;;;;;;;23.37;4.83;;;;;;;4.03;100.00;100926.38;7399062;19;20381;-47
2022/01/30 06:54:21;;;;;;;36.73;5.10;;;;;;;4.01;100.00;100925.38;7400116;19;20396;-48
2022/01/30 06:56:53;;;;;;;28.37;5.10;;;;;;;3.98;100.00;100942.13;7396777;19;20675;-46
2022/01/30 06:59:23;;;;;;;27.50;4.57;;;;;;;3.98;100.00;100962.56;7400324;19;20389;-45
2022/01/30 07:01:52;;;;;;;19.67;3.90;;;;;;;3.96;100.00;100936.03;7399005;19;20399;-46
2022/01/30 07:04:22;;;;;;;30.00;5.30;;;;;;;4.00;100.00;100917.63;7401087;19;20427;-46
2022/01/30 07:06:52;;;;;;;33.23;4.97;;;;;;;4.05;100.00;100942.69;7398402;19;20444;-48
2022/01/30 07:09:21;;;;;;;20.57;5.00;;;;;;;4.07;100.00;100967.44;7399727;19;20942;-47
2022/01/30 07:11:53;;;;;;;21.13;3.07;;;;;;;3.99;100.00;100955.03;7398430;19;20384;-47
2022/01/30 07:14:23;;;;;;;20.00;3.10;;;;;;;3.98;100.00;100957.47;7399642;19;20403;-49
2022/01/30 07:16:52;;;;;;;35.10;6.33;;;;;;;3.90;100.00;100937.38;7396290;19;20432;-49
2022/01/30 07:19:22;;;;;;;29.30;5.37;;;;;;;3.97;100.00;100977.00;7399555;19;20388;-46
2022/01/30 07:21:51;;;;;;;25.93;4.80;;;;;;;3.94;100.00;100979.31;7398930;19;20389;-48
2022/01/30 07:24:21;;;;;;;46.60;7.53;;;;;;;3.97;100.00;100965.91;7399399;19;20394;-52
2022/01/30 07:26:53;;;;;;;28.03;4.57;;;;;;;3.90;100.00;100955.25;7396109;19;20424;-47
2022/01/30 07:29:23;;;;;;;22.33;4.70;;;;;;;3.92;100.00;100986.00;7399308;19;20920;-47
2022/01/30 07:31:52;;;;;;;26.93;5.07;;;;;;;3.95;100.00;100993.00;7398080;19;20448;-46
2022/01/30 07:34:22;;;;;;;44.77;6.17;;;;;;;4.00;100.00;100984.00;7401920;19;20456;-50
2022/01/30 07:36:56;;;;;;;34.10;5.73;;;;;;;4.03;100.00;100961.22;7395660;19;20416;-47
2022/01/30 07:39:28;;;;;;;39.80;6.83;;;;;;;4.10;100.00;100973.66;7399340;19;20386;-49
2022/01/30 07:42:00;;;;;;;48.57;6.60;;;;;;;4.14;100.00;101010.50;7397121;19;20440;-51
2022/01/30 07:44:30;;;;;;;48.10;7.43;;;;;;;4.16;100.00;101027.72;7398519;19;20390;-49
2022/01/30 07:46:59;;;;;;;40.23;5.10;;;;;;;4.15;100.00;101017.44;7394778;19;20407;-52
2022/01/30 07:49:29;;;;;;;47.43;6.83;;;;;;;4.23;100.00;101058.81;7398822;19;20385;-49
2022/01/30 07:51:59;;;;;;;35.63;5.87;;;;;;;4.27;100.00;101053.16;7395498;19;20715;-47
2022/01/30 07:54:28;;;;;;;42.20;6.77;;;;;;;4.32;100.00;101060.38;7403108;19;20401;-48
2022/01/30 07:57:00;;;;;;;53.43;7.53;;;;;;;4.33;100.00;101076.59;7395870;19;20424;-46
2022/01/30 07:59:30;;;;;;;39.07;6.17;;;;;;;4.33;100.00;101109.81;7398732;19;20459;-50
2022/01/30 08:01:59;;;;;;;40.23;5.50;;;;;;;4.40;100.00;101091.59;7396267;19;20422;-48
2022/01/30 08:04:29;;;;;;;41.23;7.60;;;;;;;4.40;100.00;101089.03;7398403;19;20421;-48
2022/01/30 08:06:59;;;;;;;24.70;5.30;;;;;;;4.39;100.00;101112.81;7394831;19;20485;-50
2022/01/30 08:09:29;;;;;;;46.90;6.70;;;;;;;4.43;100.00;101091.84;7398428;19;20395;-46
2022/01/30 08:12:01;;;;;;;37.33;5.73;;;;;;;4.45;100.00;101102.13;7396713;19;20462;-48
2022/01/30 08:14:31;;;;;;;37.70;5.60;;;;;;;4.45;100.00;101118.38;7397691;19;20394;-47
2022/01/30 08:17:00;;;;;;;44.97;7.63;;;;;;;4.49;100.00;101134.81;7394852;19;20564;-47
2022/01/30 08:19:30;;;;;;;35.33;5.40;;;;;;;4.50;100.00;101116.13;7398131;19;20398;-47
2022/01/30 08:22:04;;;;;;;33.40;5.63;;;;;;;4.52;100.00;101106.91;7396005;19;20426;-47
2022/01/30 08:24:33;;;;;;;36.70;7.93;;;;;;;4.49;100.00;101106.69;7397303;19;20483;-46
2022/01/30 08:27:06;;;;;;;34.03;6.63;;;;;;;4.59;100.00;101133.81;7398163;19;20425;-45
2022/01/30 08:29:37;;;;;;;43.17;6.60;;;;;;;4.69;100.00;101133.69;7401925;19;20485;-49
2022/01/30 08:32:11;;;;;;;38.37;7.20;;;;;;;4.63;100.00;101135.81;7399016;19;20412;-48
2022/01/30 08:34:41;;;;;;;47.90;7.37;;;;;;;4.59;100.00;101129.59;7400396;19;20737;-48
2022/01/30 08:37:10;;;;;;;32.80;7.00;;;;;;;4.60;100.00;101166.25;7395875;19;20417;-45
2022/01/30 08:39:40;;;;;;;29.00;5.37;;;;;;;4.70;100.00;101132.00;7400612;19;20666;-51
2022/01/30 08:42:12;;;;;;;29.70;7.80;;;;;;;4.69;100.00;101169.50;7398883;19;20689;-47
2022/01/30 08:44:42;;;;;;;45.87;8.17;;;;;;;4.68;100.00;101182.16;7398843;19;20392;-48
2022/01/30 08:47:11;;;;;;;21.30;4.80;;;;;;;4.65;100.00;101189.59;7393585;19;20399;-46
2022/01/30 08:49:40;;;;;;;34.47;7.43;;;;;;;4.65;100.00;101205.81;7400978;19;20393;-46
2022/01/30 08:52:12;;;;;;;34.50;5.47;;;;;;;4.60;100.00;101184.16;7394946;19;20915;-47
2022/01/30 08:54:41;;;;;;;16.70;4.57;;;;;;;4.61;100.00;101208.91;7397449;19;20404;-47
2022/01/30 08:57:14;;;;;;;47.37;7.43;;;;;;;4.60;100.00;101212.25;7393889;19;20404;-48
2022/01/30 08:59:43;;;;;;;43.07;7.13;;;;;;;4.60;100.00;101207.16;7396538;19;20396;-48
2022/01/30 09:02:13;;;;;;;40.00;8.20;;;;;;;4.62;100.00;101192.84;7395011;19;20436;-45
2022/01/30 09:04:42;;;;;;;44.73;6.30;;;;;;;4.62;100.00;101230.28;7407248;19;20490;-48
2022/01/30 09:07:12;;;;;;;38.10;8.20;;;;;;;4.64;100.00;101229.63;7400965;19;20453;-48
2022/01/30 09:09:41;;;;;;;43.70;7.03;;;;;;;4.64;100.00;101234.72;7403931;19;20391;-47
2022/01/30 09:12:14;;;;;;;38.07;6.43;;;;;;;4.63;100.00;101232.94;7401284;19;20412;-50
2022/01/30 09:14:44;;;;;;;40.63;6.43;;;;;;;4.63;100.00;101238.06;7403019;19;20383;-48
2022/01/30 09:17:16;;;;;;;51.87;5.90;;;;;;;4.63;100.00;101243.19;7399528;19;20888;-48
2022/01/30 09:19:49;;;;;;;37.53;5.47;;;;;;;4.68;100.00;101257.16;7404374;19;20425;-47
2022/01/30 09:22:20;;;;;;;36.97;5.10;;;;;;;4.64;100.00;101252.63;7401718;19;20409;-49
2022/01/30 09:24:51;;;;;;;31.30;6.93;;;;;;;4.66;100.00;101261.28;7402766;19;20417;-49
2022/01/30 09:27:23;;;;;;;43.77;10.83;;;;;;;4.70;100.00;101240.28;7399308;19;21002;-48
2022/01/30 09:29:53;;;;;;;52.37;9.77;;;;;;;4.79;100.00;101254.50;7404157;19;20394;-47
2022/01/30 09:32:22;;;;;;;37.50;6.80;;;;;;;4.80;100.00;101253.72;7403825;19;20685;-46
2022/01/30 09:34:52;;;;;;;42.90;6.70;;;;;;;4.81;100.00;101264.06;7402469;19;20387;-46
2022/01/30 09:37:22;;;;;;;42.67;10.87;;;;;;;4.84;100.00;101268.53;7399634;19;20755;-49
2022/01/30 09:39:51;;;;;;;67.87;16.13;;;;;;;4.85;100.00;101267.75;7402990;19;20450;-47
2022/01/30 09:42:25;;;;;;;53.23;9.17;;;;;;;4.88;100.00;101272.19;7400800;19;20418;-48
2022/01/30 09:44:58;;;;;;;40.20;6.20;;;;;;;4.89;100.00;101281.63;7402096;19;20391;-48
2022/01/30 09:47:28;;;;;;;54.77;11.13;;;;;;;4.87;100.00;101317.31;7398135;19;20407;-47
2022/01/30 09:49:57;;;;;;;48.10;5.50;;;;;;;4.92;100.00;101320.25;7402721;19;20442;-48
2022/01/30 09:52:27;;;;;;;44.60;8.10;;;;;;;4.96;100.00;101306.88;7401031;19;20413;-47
2022/01/30 09:54:57;;;;;;;37.77;7.00;;;;;;;4.93;100.00;101299.00;7404793;19;20438;-50
2022/01/30 09:57:29;;;;;;;39.83;5.70;;;;;;;4.90;100.00;101304.78;7375990;19;20421;-47
2022/01/30 09:59:59;;;;;;;36.93;7.10;;;;;;;4.85;100.00;101301.88;7401305;19;20383;-50
2022/01/30 10:02:28;;;;;;;36.93;5.57;;;;;;;4.84;100.00;101315.47;7400547;19;20421;-46
2022/01/30 10:04:58;;;;;;;45.07;7.27;;;;;;;4.91;100.00;101334.69;7401008;19;20390;-46
2022/01/30 10:07:41;;;;;;;44.50;6.53;;;;;;;4.89;100.00;101335.34;7398640;19;20394;-47
2022/01/30 10:10:12;;;;;;;32.97;6.43;;;;;;;4.86;100.00;101318.09;7402132;19;20454;-51
2022/01/30 10:13:06;;;;;;;41.67;7.10;;;;;;;4.88;100.00;101347.25;7369821;19;20493;-50
2022/01/30 10:15:51;;;;;;;25.30;5.47;;;;;;;4.87;100.00;101353.13;7400042;19;20416;-47
2022/01/30 10:18:22;;;;;;;34.53;6.37;;;;;;;4.87;100.00;101348.00;7387720;19;20416;-49
2022/01/30 10:20:52;;;;;;;36.40;7.13;;;;;;;4.90;100.00;101348.25;7401596;19;20395;-46
2022/01/30 10:23:22;;;;;;;33.90;8.60;;;;;;;4.87;100.00;101350.56;7399680;19;20479;-48
2022/01/30 10:25:54;;;;;;;31.73;5.70;;;;;;;4.94;100.00;101360.50;7400124;19;20411;-47
2022/01/30 10:28:29;;;;;;;46.03;6.10;;;;;;;4.89;100.00;101387.38;7400645;19;20454;-48
2022/01/30 10:31:00;;;;;;;43.67;5.83;;;;;;;4.88;100.00;101361.69;7401171;19;20382;-48
2022/01/30 10:33:45;;;;;;;45.27;5.90;;;;;;;4.94;100.00;101392.84;7399124;19;20410;-47
2022/01/30 10:36:20;;;;;;;34.10;6.40;;;;;;;4.89;100.00;101369.50;7399472;19;20502;-49
2022/01/30 10:39:01;;;;;;;36.43;6.03;;;;;;;4.90;100.00;101349.91;7384350;19;20694;-48
2022/01/30 10:41:41;;;;;;;31.60;7.00;;;;;;;5.00;100.00;101383.97;7400996;19;20418;-47
2022/01/30 10:44:13;;;;;;;31.63;7.03;;;;;;;5.05;100.00;101375.72;7400172;19;20408;-48
2022/01/30 10:46:44;;;;;;;32.33;4.60;;;;;;;5.08;100.00;101386.22;7397039;19;20418;-46
2022/01/30 10:49:15;;;;;;;43.73;7.27;;;;;;;5.04;100.00;101392.75;7400126;19;20386;-47
2022/01/30 10:51:54;;;;;;;36.27;6.80;;;;;;;5.02;100.00;101380.63;7399305;19;20859;-46
2022/01/30 10:54:25;;;;;;;38.47;6.77;;;;;;;5.04;100.00;101394.41;7401866;19;20853;-46
2022/01/30 10:57:03;;;;;;;53.03;7.40;;;;;;;5.12;100.00;101370.28;7374415;19;20428;-46
2022/01/30 10:59:42;;;;;;;32.73;6.67;;;;;;;5.06;100.00;101387.75;7399329;19;20377;-47
2022/01/30 11:02:16;;;;;;;31.30;6.30;;;;;;;4.98;100.00;101365.03;7385666;19;20709;-53
2022/01/30 11:04:47;;;;;;;32.17;4.30;;;;;;;4.97;100.00;101388.84;7399844;19;20402;-46
2022/01/30 11:07:20;;;;;;;45.40;7.80;;;;;;;5.00;100.00;101391.66;7396457;19;20404;-49
2022/01/30 11:10:05;;;;;;;41.10;6.57;;;;;;;5.05;100.00;101376.63;7400225;19;20700;-46
2022/01/30 11:12:41;;;;;;;40.67;6.10;;;;;;;5.00;100.00;101400.97;7397270;19;20432;-47
2022/01/30 11:15:34;;;;;;;28.27;5.67;;;;;;;5.04;100.00;101394.41;7400035;19;20462;-47
2022/01/30 11:18:05;;;;;;;45.80;7.70;;;;;;;5.10;100.00;101394.88;7395527;19;20435;-46
2022/01/30 11:20:35;;;;;;;26.43;4.47;;;;;;;5.01;100.00;101400.19;7399690;19;20680;-48
2022/01/30 11:23:08;;;;;;;46.03;7.90;;;;;;;5.06;100.00;101413.31;7397877;19;20419;-46
2022/01/30 11:25:39;;;;;;;48.47;6.00;;;;;;;5.11;100.00;101412.00;7397215;19;20391;-49
2022/01/30 11:28:11;;;;;;;41.03;6.70;;;;;;;5.11;100.00;101419.69;7375272;19;20449;-47
2022/01/30 11:30:54;;;;;;;36.30;6.23;;;;;;;5.13;100.00;101426.69;7399149;19;20415;-49
2022/01/30 11:33:24;;;;;;;23.80;3.57;;;;;;;5.05;100.00;101414.09;7396972;19;20693;-49
2022/01/30 11:35:54;;;;;;;31.67;5.80;;;;;;;5.06;100.00;101410.75;7399763;19;20433;-48
2022/01/30 11:38:24;;;;;;;37.33;5.37;;;;;;;5.08;100.00;101427.13;7396070;19;20437;-46
2022/01/30 11:41:12;;;;;;;26.53;4.70;;;;;;;5.08;100.00;101417.78;7398983;19;20398;-46
2022/01/30 11:43:43;;;;;;;29.40;5.30;;;;;;;5.09;100.00;101426.34;7397012;19;20502;-46
2022/01/30 11:46:19;;;;;;;40.50;5.47;;;;;;;5.18;100.00;101426.16;7397279;19;20417;-52
2022/01/30 11:49:12;;;;;;;44.23;6.77;;;;;;;5.14;100.00;101437.81;7383791;19;20426;-50
2022/01/30 11:51:50;;;;;;;24.40;4.37;;;;;;;5.13;100.00;101443.72;7397060;19;20719;-46
2022/01/30 11:54:36;;;;;;;39.17;5.70;;;;;;;5.14;100.00;101432.72;7402446;19;20404;-51
2022/01/30 11:57:07;;;;;;;39.67;4.60;;;;;;;5.03;100.00;101441.25;7395966;19;20422;-47
2022/01/30 11:59:38;;;;;;;23.73;4.90;;;;;;;5.03;100.00;101420.78;7396934;19;20395;-51
2022/01/30 12:02:27;;;;;;;23.23;4.53;;;;;;;4.98;100.00;101446.88;7396883;19;20418;-47
2022/01/30 12:04:59;;;;;;;22.60;4.53;;;;;;;4.98;100.00;101461.38;7397766;19;20400;-50
2022/01/30 12:07:35;;;;;;;38.17;5.67;;;;;;;4.96;100.00;101455.22;7394643;19;20699;-49
2022/01/30 12:10:35;;;;;;;31.27;6.47;;;;;;;4.88;100.00;101448.63;7398250;19;20392;-47